sensor_id;sensor_type;location;lat;lon;timestamp;temperature;humidity
50162;DHT22;36061;48.116;11.612;2023-11-19T00:01:38;5.00;99.90
50162;DHT22;36061;48.116;11.612;2023-11-19T00:04:06;5.00;99.90
50162;DHT22;36061;48.116;11.612;2023-11-19T00:06:35;5.00;99.90
50162;DHT22;36061;48.116;11.612;2023-11-19T00:09:02;5.00;99.90
50162;DHT22;36061;48.116;11.612;2023-11-19T00:11:30;5.10;99.90
50162;DHT22;36061;48.116;11.612;2023-11-19T00:13:58;5.10;99.90
50162;DHT22;36061;48.116;11.612;2023-11-19T00:16:25;5.10;99.90
50162;DHT22;36061;48.116;11.612;2023-11-19T00:18:52;5.10;99.90
50162;DHT22;36061;48.116;11.612;2023-11-19T00:21:20;5.20;99.90
50162;DHT22;36061;48.116;11.612;2023-11-19T00:23:49;5.20;99.90
50162;DHT22;36061;48.116;11.612;2023-11-19T00:26:17;5.20;99.90
50162;DHT22;36061;48.116;11.612;2023-11-19T00:28:49;5.10;99.90
50162;DHT22;36061;48.116;11.612;2023-11-19T00:31:18;5.10;99.90
50162;DHT22;36061;48.116;11.612;2023-11-19T00:33:46;5.10;99.90
50162;DHT22;36061;48.116;11.612;2023-11-19T00:36:13;5.10;99.90
50162;DHT22;36061;48.116;11.612;2023-11-19T00:38:40;5.10;99.90
50162;DHT22;36061;48.116;11.612;2023-11-19T00:41:09;5.20;99.90
50162;DHT22;36061;48.116;11.612;2023-11-19T00:43:36;5.30;99.90
50162;DHT22;36061;48.116;11.612;2023-11-19T00:46:04;5.30;99.90
50162;DHT22;36061;48.116;11.612;2023-11-19T00:48:33;5.30;99.90
50162;DHT22;36061;48.116;11.612;2023-11-19T00:51:01;5.30;99.90
50162;DHT22;36061;48.116;11.612;2023-11-19T00:53:30;5.30;99.90
50162;DHT22;36061;48.116;11.612;2023-11-19T00:55:58;5.30;99.90
50162;DHT22;36061;48.116;11.612;2023-11-19T00:58:26;5.40;99.90
50162;DHT22;36061;48.116;11.612;2023-11-19T01:00:54;5.30;99.90
50162;DHT22;36061;48.116;11.612;2023-11-19T01:03:21;5.40;99.90
50162;DHT22;36061;48.116;11.612;2023-11-19T01:05:48;5.30;99.90
50162;DHT22;36061;48.116;11.612;2023-11-19T01:08:15;5.30;99.90
50162;DHT22;36061;48.116;11.612;2023-11-19T01:10:43;5.40;99.90
50162;DHT22;36061;48.116;11.612;2023-11-19T01:13:10;5.40;99.90
50162;DHT22;36061;48.116;11.612;2023-11-19T01:15:39;5.40;99.90
50162;DHT22;36061;48.116;11.612;2023-11-19T01:18:07;5.50;99.90
50162;DHT22;36061;48.116;11.612;2023-11-19T01:20:36;5.50;99.90
50162;DHT22;36061;48.116;11.612;2023-11-19T01:23:04;5.50;99.90
50162;DHT22;36061;48.116;11.612;2023-11-19T01:25:31;5.40;99.90
50162;DHT22;36061;48.116;11.612;2023-11-19T01:27:58;5.40;99.90
50162;DHT22;36061;48.116;11.612;2023-11-19T01:30:25;5.40;99.90
50162;DHT22;36061;48.116;11.612;2023-11-19T01:32:54;5.50;99.90
50162;DHT22;36061;48.116;11.612;2023-11-19T01:35:21;5.50;99.90
50162;DHT22;36061;48.116;11.612;2023-11-19T01:37:49;5.50;99.90
50162;DHT22;36061;48.116;11.612;2023-11-19T01:40:20;5.50;99.90
50162;DHT22;36061;48.116;11.612;2023-11-19T01:42:48;5.50;99.90
50162;DHT22;36061;48.116;11.612;2023-11-19T01:45:22;5.60;99.90
50162;DHT22;36061;48.116;11.612;2023-11-19T01:47:55;5.60;99.90
50162;DHT22;36061;48.116;11.612;2023-11-19T01:50:22;5.60;99.90
50162;DHT22;36061;48.116;11.612;2023-11-19T01:52:51;5.60;99.90
50162;DHT22;36061;48.116;11.612;2023-11-19T01:55:19;5.70;99.90
50162;DHT22;36061;48.116;11.612;2023-11-19T01:57:48;5.70;99.90
50162;DHT22;36061;48.116;11.612;2023-11-19T02:00:17;5.70;99.90
50162;DHT22;36061;48.116;11.612;2023-11-19T02:02:46;5.70;99.90
50162;DHT22;36061;48.116;11.612;2023-11-19T02:05:15;5.80;99.90
50162;DHT22;36061;48.116;11.612;2023-11-19T02:07:43;5.80;99.90
50162;DHT22;36061;48.116;11.612;2023-11-19T02:10:12;5.90;99.90
50162;DHT22;36061;48.116;11.612;2023-11-19T02:12:40;5.80;99.90
50162;DHT22;36061;48.116;11.612;2023-11-19T02:15:10;5.90;99.90
50162;DHT22;36061;48.116;11.612;2023-11-19T02:17:37;5.90;99.90
50162;DHT22;36061;48.116;11.612;2023-11-19T02:20:06;5.90;99.90
50162;DHT22;36061;48.116;11.612;2023-11-19T02:22:36;5.90;99.90
50162;DHT22;36061;48.116;11.612;2023-11-19T02:25:06;5.90;99.90
50162;DHT22;36061;48.116;11.612;2023-11-19T02:27:54;6.10;99.90
50162;DHT22;36061;48.116;11.612;2023-11-19T02:30:23;6.10;99.90
50162;DHT22;36061;48.116;11.612;2023-11-19T02:32:52;6.10;99.90
50162;DHT22;36061;48.116;11.612;2023-11-19T02:35:20;6.10;99.90
50162;DHT22;36061;48.116;11.612;2023-11-19T02:37:48;6.10;99.90
50162;DHT22;36061;48.116;11.612;2023-11-19T02:40:15;6.10;99.90
50162;DHT22;36061;48.116;11.612;2023-11-19T02:42:43;6.10;99.90
50162;DHT22;36061;48.116;11.612;2023-11-19T02:45:11;6.20;99.90
50162;DHT22;36061;48.116;11.612;2023-11-19T02:47:40;6.20;99.90
50162;DHT22;36061;48.116;11.612;2023-11-19T02:50:10;6.20;99.90
50162;DHT22;36061;48.116;11.612;2023-11-19T02:52:40;6.20;99.90
50162;DHT22;36061;48.116;11.612;2023-11-19T02:55:08;6.30;99.90
50162;DHT22;36061;48.116;11.612;2023-11-19T02:57:38;6.30;99.90
50162;DHT22;36061;48.116;11.612;2023-11-19T03:00:14;6.30;99.90
50162;DHT22;36061;48.116;11.612;2023-11-19T03:02:42;6.40;99.90
50162;DHT22;36061;48.116;11.612;2023-11-19T03:05:12;6.40;99.90
50162;DHT22;36061;48.116;11.612;2023-11-19T03:07:41;6.50;99.90
50162;DHT22;36061;48.116;11.612;2023-11-19T03:10:10;6.50;99.90
50162;DHT22;36061;48.116;11.612;2023-11-19T03:12:39;6.50;99.90
50162;DHT22;36061;48.116;11.612;2023-11-19T03:15:08;6.50;99.90
50162;DHT22;36061;48.116;11.612;2023-11-19T03:17:38;6.60;99.90
50162;DHT22;36061;48.116;11.612;2023-11-19T03:20:07;6.60;99.90
50162;DHT22;36061;48.116;11.612;2023-11-19T03:22:36;6.70;99.90
50162;DHT22;36061;48.116;11.612;2023-11-19T03:25:05;6.70;99.90
50162;DHT22;36061;48.116;11.612;2023-11-19T03:27:34;6.70;99.90
50162;DHT22;36061;48.116;11.612;2023-11-19T03:30:02;6.70;99.90
50162;DHT22;36061;48.116;11.612;2023-11-19T03:32:30;6.80;99.90
50162;DHT22;36061;48.116;11.612;2023-11-19T03:34:59;6.80;99.90
50162;DHT22;36061;48.116;11.612;2023-11-19T03:37:28;6.90;99.90
50162;DHT22;36061;48.116;11.612;2023-11-19T03:39:56;6.90;99.90
50162;DHT22;36061;48.116;11.612;2023-11-19T03:42:25;6.90;99.90
50162;DHT22;36061;48.116;11.612;2023-11-19T03:44:53;6.90;99.90
50162;DHT22;36061;48.116;11.612;2023-11-19T03:47:20;7.00;99.90
50162;DHT22;36061;48.116;11.612;2023-11-19T03:49:49;7.00;99.90
50162;DHT22;36061;48.116;11.612;2023-11-19T03:52:18;7.00;99.90
50162;DHT22;36061;48.116;11.612;2023-11-19T03:54:45;7.00;99.90
50162;DHT22;36061;48.116;11.612;2023-11-19T03:57:13;7.00;99.90
50162;DHT22;36061;48.116;11.612;2023-11-19T03:59:41;7.00;99.90
50162;DHT22;36061;48.116;11.612;2023-11-19T04:02:08;7.10;99.90
50162;DHT22;36061;48.116;11.612;2023-11-19T04:04:36;7.10;99.90
50162;DHT22;36061;48.116;11.612;2023-11-19T04:07:04;7.10;99.90
50162;DHT22;36061;48.116;11.612;2023-11-19T04:09:33;7.20;99.90
50162;DHT22;36061;48.116;11.612;2023-11-19T04:12:04;7.20;99.90
50162;DHT22;36061;48.116;11.612;2023-11-19T04:14:31;7.20;99.90
50162;DHT22;36061;48.116;11.612;2023-11-19T04:16:58;7.20;99.90
50162;DHT22;36061;48.116;11.612;2023-11-19T04:19:25;7.20;99.90
50162;DHT22;36061;48.116;11.612;2023-11-19T04:21:53;7.20;99.90
50162;DHT22;36061;48.116;11.612;2023-11-19T04:24:20;7.20;99.90
50162;DHT22;36061;48.116;11.612;2023-11-19T04:26:48;7.20;99.90
50162;DHT22;36061;48.116;11.612;2023-11-19T04:29:16;7.20;99.90
50162;DHT22;36061;48.116;11.612;2023-11-19T04:31:44;7.30;99.90
50162;DHT22;36061;48.116;11.612;2023-11-19T04:34:12;7.30;99.90
50162;DHT22;36061;48.116;11.612;2023-11-19T04:36:39;7.30;99.90
50162;DHT22;36061;48.116;11.612;2023-11-19T04:39:06;7.30;99.90
50162;DHT22;36061;48.116;11.612;2023-11-19T04:41:45;7.30;99.90
50162;DHT22;36061;48.116;11.612;2023-11-19T04:44:15;7.30;99.90
50162;DHT22;36061;48.116;11.612;2023-11-19T04:46:43;7.30;99.90
50162;DHT22;36061;48.116;11.612;2023-11-19T04:49:11;7.40;99.90
50162;DHT22;36061;48.116;11.612;2023-11-19T04:51:39;7.30;99.90
50162;DHT22;36061;48.116;11.612;2023-11-19T04:54:08;7.40;99.90
50162;DHT22;36061;48.116;11.612;2023-11-19T04:56:36;7.40;99.90
50162;DHT22;36061;48.116;11.612;2023-11-19T04:59:03;7.50;99.90
50162;DHT22;36061;48.116;11.612;2023-11-19T05:01:33;7.80;99.90
50162;DHT22;36061;48.116;11.612;2023-11-19T05:04:00;8.00;99.90
50162;DHT22;36061;48.116;11.612;2023-11-19T05:06:28;8.20;99.90
50162;DHT22;36061;48.116;11.612;2023-11-19T05:08:56;8.30;99.90
50162;DHT22;36061;48.116;11.612;2023-11-19T05:11:23;8.60;99.90
50162;DHT22;36061;48.116;11.612;2023-11-19T05:13:51;8.80;99.90
50162;DHT22;36061;48.116;11.612;2023-11-19T05:16:18;9.00;99.90
50162;DHT22;36061;48.116;11.612;2023-11-19T05:18:48;9.10;99.90
50162;DHT22;36061;48.116;11.612;2023-11-19T05:21:15;9.10;99.90
50162;DHT22;36061;48.116;11.612;2023-11-19T05:23:43;9.20;99.90
50162;DHT22;36061;48.116;11.612;2023-11-19T05:26:17;9.20;99.90
50162;DHT22;36061;48.116;11.612;2023-11-19T05:28:45;9.30;99.90
50162;DHT22;36061;48.116;11.612;2023-11-19T05:31:13;9.30;99.90
50162;DHT22;36061;48.116;11.612;2023-11-19T05:33:40;9.30;99.90
50162;DHT22;36061;48.116;11.612;2023-11-19T05:36:11;9.30;99.90
50162;DHT22;36061;48.116;11.612;2023-11-19T05:38:38;9.40;99.90
50162;DHT22;36061;48.116;11.612;2023-11-19T05:41:06;9.40;99.90
50162;DHT22;36061;48.116;11.612;2023-11-19T05:43:33;9.40;99.90
50162;DHT22;36061;48.116;11.612;2023-11-19T05:46:00;9.40;99.90
50162;DHT22;36061;48.116;11.612;2023-11-19T05:48:28;9.40;99.90
50162;DHT22;36061;48.116;11.612;2023-11-19T05:50:55;9.30;99.90
50162;DHT22;36061;48.116;11.612;2023-11-19T05:53:24;9.30;99.90
50162;DHT22;36061;48.116;11.612;2023-11-19T05:55:51;9.40;99.90
50162;DHT22;36061;48.116;11.612;2023-11-19T05:58:24;9.40;99.90
50162;DHT22;36061;48.116;11.612;2023-11-19T06:00:54;9.50;99.90
50162;DHT22;36061;48.116;11.612;2023-11-19T06:03:21;9.50;99.90
50162;DHT22;36061;48.116;11.612;2023-11-19T06:05:49;9.50;99.90
50162;DHT22;36061;48.116;11.612;2023-11-19T06:08:17;9.50;99.90
50162;DHT22;36061;48.116;11.612;2023-11-19T06:10:47;9.50;99.90
50162;DHT22;36061;48.116;11.612;2023-11-19T06:13:16;9.60;99.90
50162;DHT22;36061;48.116;11.612;2023-11-19T06:15:43;9.50;99.90
50162;DHT22;36061;48.116;11.612;2023-11-19T06:18:11;9.50;99.90
50162;DHT22;36061;48.116;11.612;2023-11-19T06:20:38;9.50;99.90
50162;DHT22;36061;48.116;11.612;2023-11-19T06:23:06;9.60;99.90
50162;DHT22;36061;48.116;11.612;2023-11-19T06:25:33;9.60;99.90
50162;DHT22;36061;48.116;11.612;2023-11-19T06:28:03;9.60;99.90
50162;DHT22;36061;48.116;11.612;2023-11-19T06:30:30;9.50;99.90
50162;DHT22;36061;48.116;11.612;2023-11-19T06:32:58;9.50;99.90
50162;DHT22;36061;48.116;11.612;2023-11-19T06:35:25;9.60;99.90
50162;DHT22;36061;48.116;11.612;2023-11-19T06:37:54;9.60;99.90
50162;DHT22;36061;48.116;11.612;2023-11-19T06:40:22;9.60;99.90
50162;DHT22;36061;48.116;11.612;2023-11-19T06:42:49;9.60;99.90
50162;DHT22;36061;48.116;11.612;2023-11-19T06:45:19;9.60;99.90
50162;DHT22;36061;48.116;11.612;2023-11-19T06:47:47;9.60;99.90
50162;DHT22;36061;48.116;11.612;2023-11-19T06:50:15;9.60;99.90
50162;DHT22;36061;48.116;11.612;2023-11-19T06:52:42;9.60;99.90
50162;DHT22;36061;48.116;11.612;2023-11-19T06:55:11;9.60;99.90
50162;DHT22;36061;48.116;11.612;2023-11-19T06:57:38;9.60;99.90
50162;DHT22;36061;48.116;11.612;2023-11-19T07:00:06;9.60;99.90
50162;DHT22;36061;48.116;11.612;2023-11-19T07:02:35;9.60;99.90
50162;DHT22;36061;48.116;11.612;2023-11-19T07:05:03;9.70;99.90
50162;DHT22;36061;48.116;11.612;2023-11-19T07:07:31;9.70;99.90
50162;DHT22;36061;48.116;11.612;2023-11-19T07:09:58;9.70;99.90
50162;DHT22;36061;48.116;11.612;2023-11-19T07:12:26;9.70;99.90
50162;DHT22;36061;48.116;11.612;2023-11-19T07:14:53;9.70;99.90
50162;DHT22;36061;48.116;11.612;2023-11-19T07:17:21;9.80;99.90
50162;DHT22;36061;48.116;11.612;2023-11-19T07:19:51;9.80;99.90
50162;DHT22;36061;48.116;11.612;2023-11-19T07:22:18;9.80;99.90
50162;DHT22;36061;48.116;11.612;2023-11-19T07:24:46;9.90;99.90
50162;DHT22;36061;48.116;11.612;2023-11-19T07:27:13;9.90;99.90
50162;DHT22;36061;48.116;11.612;2023-11-19T07:29:43;9.90;99.90
50162;DHT22;36061;48.116;11.612;2023-11-19T07:32:11;9.90;99.90
50162;DHT22;36061;48.116;11.612;2023-11-19T07:34:39;9.90;99.90
50162;DHT22;36061;48.116;11.612;2023-11-19T07:37:08;9.90;99.90
50162;DHT22;36061;48.116;11.612;2023-11-19T07:39:35;10.00;99.90
50162;DHT22;36061;48.116;11.612;2023-11-19T07:42:06;10.00;99.90
50162;DHT22;36061;48.116;11.612;2023-11-19T07:44:35;10.10;99.90
50162;DHT22;36061;48.116;11.612;2023-11-19T07:47:02;10.10;99.90
50162;DHT22;36061;48.116;11.612;2023-11-19T07:49:30;10.20;99.90
50162;DHT22;36061;48.116;11.612;2023-11-19T07:51:57;10.20;99.90
50162;DHT22;36061;48.116;11.612;2023-11-19T07:54:26;10.20;99.90
50162;DHT22;36061;48.116;11.612;2023-11-19T07:56:53;10.20;99.90
50162;DHT22;36061;48.116;11.612;2023-11-19T07:59:21;10.20;99.90
50162;DHT22;36061;48.116;11.612;2023-11-19T08:01:48;10.20;99.90
50162;DHT22;36061;48.116;11.612;2023-11-19T08:04:15;10.20;99.90
50162;DHT22;36061;48.116;11.612;2023-11-19T08:06:42;10.20;99.90
50162;DHT22;36061;48.116;11.612;2023-11-19T08:09:11;10.30;99.90
50162;DHT22;36061;48.116;11.612;2023-11-19T08:11:41;10.30;99.90
50162;DHT22;36061;48.116;11.612;2023-11-19T08:14:08;10.30;99.90
50162;DHT22;36061;48.116;11.612;2023-11-19T08:16:36;10.30;99.90
50162;DHT22;36061;48.116;11.612;2023-11-19T08:19:03;10.40;99.90
50162;DHT22;36061;48.116;11.612;2023-11-19T08:21:31;10.40;99.90
50162;DHT22;36061;48.116;11.612;2023-11-19T08:23:58;10.40;99.90
50162;DHT22;36061;48.116;11.612;2023-11-19T08:26:25;10.50;99.90
50162;DHT22;36061;48.116;11.612;2023-11-19T08:28:53;10.50;99.90
50162;DHT22;36061;48.116;11.612;2023-11-19T08:31:21;10.50;99.90
50162;DHT22;36061;48.116;11.612;2023-11-19T08:33:48;10.50;99.90
50162;DHT22;36061;48.116;11.612;2023-11-19T08:36:15;10.50;99.90
50162;DHT22;36061;48.116;11.612;2023-11-19T08:38:43;10.50;99.90
50162;DHT22;36061;48.116;11.612;2023-11-19T08:41:10;10.60;99.90
50162;DHT22;36061;48.116;11.612;2023-11-19T08:43:38;10.70;99.90
50162;DHT22;36061;48.116;11.612;2023-11-19T08:46:11;10.70;99.90
50162;DHT22;36061;48.116;11.612;2023-11-19T08:48:38;10.70;99.90
50162;DHT22;36061;48.116;11.612;2023-11-19T08:51:05;10.70;99.90
50162;DHT22;36061;48.116;11.612;2023-11-19T08:53:33;10.70;99.90
50162;DHT22;36061;48.116;11.612;2023-11-19T08:56:00;10.80;99.90
50162;DHT22;36061;48.116;11.612;2023-11-19T08:58:28;10.90;99.90
50162;DHT22;36061;48.116;11.612;2023-11-19T09:00:56;11.00;99.90
50162;DHT22;36061;48.116;11.612;2023-11-19T09:03:25;11.00;99.90
50162;DHT22;36061;48.116;11.612;2023-11-19T09:05:53;11.00;99.90
50162;DHT22;36061;48.116;11.612;2023-11-19T09:08:20;11.00;99.90
50162;DHT22;36061;48.116;11.612;2023-11-19T09:10:47;11.10;99.90
50162;DHT22;36061;48.116;11.612;2023-11-19T09:13:14;11.10;99.90
50162;DHT22;36061;48.116;11.612;2023-11-19T09:15:42;11.10;99.90
50162;DHT22;36061;48.116;11.612;2023-11-19T09:18:09;11.10;99.90
50162;DHT22;36061;48.116;11.612;2023-11-19T09:20:37;11.10;99.90
50162;DHT22;36061;48.116;11.612;2023-11-19T09:23:05;11.20;99.90
50162;DHT22;36061;48.116;11.612;2023-11-19T09:25:32;11.30;99.90
50162;DHT22;36061;48.116;11.612;2023-11-19T09:27:59;11.40;99.90
50162;DHT22;36061;48.116;11.612;2023-11-19T09:30:27;11.50;99.90
50162;DHT22;36061;48.116;11.612;2023-11-19T09:32:54;11.60;99.90
50162;DHT22;36061;48.116;11.612;2023-11-19T09:35:22;11.70;99.90
50162;DHT22;36061;48.116;11.612;2023-11-19T09:37:50;11.80;99.90
50162;DHT22;36061;48.116;11.612;2023-11-19T09:40:18;11.90;99.90
50162;DHT22;36061;48.116;11.612;2023-11-19T09:42:48;11.80;99.90
50162;DHT22;36061;48.116;11.612;2023-11-19T09:45:16;11.80;99.90
50162;DHT22;36061;48.116;11.612;2023-11-19T09:47:45;11.70;99.90
50162;DHT22;36061;48.116;11.612;2023-11-19T09:50:16;11.70;99.90
50162;DHT22;36061;48.116;11.612;2023-11-19T09:52:44;11.60;99.90
50162;DHT22;36061;48.116;11.612;2023-11-19T09:55:14;11.60;99.90
50162;DHT22;36061;48.116;11.612;2023-11-19T09:57:41;11.50;99.90
50162;DHT22;36061;48.116;11.612;2023-11-19T10:00:11;11.50;99.90
50162;DHT22;36061;48.116;11.612;2023-11-19T10:02:41;11.60;99.90
50162;DHT22;36061;48.116;11.612;2023-11-19T10:05:12;11.60;99.90
50162;DHT22;36061;48.116;11.612;2023-11-19T10:07:40;11.60;99.90
50162;DHT22;36061;48.116;11.612;2023-11-19T10:10:09;11.70;99.90
50162;DHT22;36061;48.116;11.612;2023-11-19T10:12:41;11.80;99.90
50162;DHT22;36061;48.116;11.612;2023-11-19T10:15:17;11.60;99.90
50162;DHT22;36061;48.116;11.612;2023-11-19T10:17:46;12.00;99.90
50162;DHT22;36061;48.116;11.612;2023-11-19T10:20:14;12.00;99.90
50162;DHT22;36061;48.116;11.612;2023-11-19T10:22:41;12.00;99.90
50162;DHT22;36061;48.116;11.612;2023-11-19T10:25:22;12.10;99.90
50162;DHT22;36061;48.116;11.612;2023-11-19T10:27:51;12.10;99.90
50162;DHT22;36061;48.116;11.612;2023-11-19T10:30:20;12.10;99.90
50162;DHT22;36061;48.116;11.612;2023-11-19T10:33:03;12.10;99.90
50162;DHT22;36061;48.116;11.612;2023-11-19T10:35:31;12.20;99.90
50162;DHT22;36061;48.116;11.612;2023-11-19T10:38:02;12.20;99.90
50162;DHT22;36061;48.116;11.612;2023-11-19T10:40:40;12.30;99.90
50162;DHT22;36061;48.116;11.612;2023-11-19T10:43:09;12.30;99.90
50162;DHT22;36061;48.116;11.612;2023-11-19T10:45:36;12.40;99.90
50162;DHT22;36061;48.116;11.612;2023-11-19T10:48:05;12.40;99.90
50162;DHT22;36061;48.116;11.612;2023-11-19T10:50:33;12.50;99.90
50162;DHT22;36061;48.116;11.612;2023-11-19T10:53:03;12.60;99.90
50162;DHT22;36061;48.116;11.612;2023-11-19T10:55:31;12.80;99.90
50162;DHT22;36061;48.116;11.612;2023-11-19T10:58:01;12.90;99.90
50162;DHT22;36061;48.116;11.612;2023-11-19T11:00:36;13.00;99.90
50162;DHT22;36061;48.116;11.612;2023-11-19T11:03:11;13.00;99.90
50162;DHT22;36061;48.116;11.612;2023-11-19T11:05:39;13.00;99.90
50162;DHT22;36061;48.116;11.612;2023-11-19T11:08:08;13.00;99.90
50162;DHT22;36061;48.116;11.612;2023-11-19T11:10:40;12.90;99.90
50162;DHT22;36061;48.116;11.612;2023-11-19T11:13:10;12.90;99.90
50162;DHT22;36061;48.116;11.612;2023-11-19T11:15:39;12.90;99.90
50162;DHT22;36061;48.116;11.612;2023-11-19T11:18:09;12.80;99.90
50162;DHT22;36061;48.116;11.612;2023-11-19T11:20:36;12.80;99.90
50162;DHT22;36061;48.116;11.612;2023-11-19T11:23:33;12.80;99.90
50162;DHT22;36061;48.116;11.612;2023-11-19T11:26:23;12.80;99.90
50162;DHT22;36061;48.116;11.612;2023-11-19T11:28:58;12.90;99.90
50162;DHT22;36061;48.116;11.612;2023-11-19T11:31:35;12.90;99.90
50162;DHT22;36061;48.116;11.612;2023-11-19T11:34:28;12.90;99.90
50162;DHT22;36061;48.116;11.612;2023-11-19T11:37:14;13.00;99.90
50162;DHT22;36061;48.116;11.612;2023-11-19T11:39:42;13.00;99.90
50162;DHT22;36061;48.116;11.612;2023-11-19T11:42:34;13.00;99.90
50162;DHT22;36061;48.116;11.612;2023-11-19T11:45:04;13.00;99.90
50162;DHT22;36061;48.116;11.612;2023-11-19T11:48:12;13.10;99.90
50162;DHT22;36061;48.116;11.612;2023-11-19T11:50:56;13.10;99.90
50162;DHT22;36061;48.116;11.612;2023-11-19T11:53:25;13.20;99.90
50162;DHT22;36061;48.116;11.612;2023-11-19T11:55:54;13.20;99.90
50162;DHT22;36061;48.116;11.612;2023-11-19T11:58:26;13.20;99.90
50162;DHT22;36061;48.116;11.612;2023-11-19T12:00:54;13.30;99.90
50162;DHT22;36061;48.116;11.612;2023-11-19T12:03:28;13.30;99.90
50162;DHT22;36061;48.116;11.612;2023-11-19T12:05:56;13.50;99.90
50162;DHT22;36061;48.116;11.612;2023-11-19T12:08:28;13.50;99.90
50162;DHT22;36061;48.116;11.612;2023-11-19T12:10:57;13.50;99.90
50162;DHT22;36061;48.116;11.612;2023-11-19T12:13:46;13.50;99.90
50162;DHT22;36061;48.116;11.612;2023-11-19T12:16:14;13.50;99.90
50162;DHT22;36061;48.116;11.612;2023-11-19T12:18:43;13.50;99.90
50162;DHT22;36061;48.116;11.612;2023-11-19T12:21:10;13.50;99.90
50162;DHT22;36061;48.116;11.612;2023-11-19T12:23:45;13.60;99.90
50162;DHT22;36061;48.116;11.612;2023-11-19T12:26:33;13.60;99.90
50162;DHT22;36061;48.116;11.612;2023-11-19T12:29:01;13.50;99.90
50162;DHT22;36061;48.116;11.612;2023-11-19T12:31:32;13.50;99.90
50162;DHT22;36061;48.116;11.612;2023-11-19T12:34:07;13.50;99.90
50162;DHT22;36061;48.116;11.612;2023-11-19T12:36:39;13.50;99.90
50162;DHT22;36061;48.116;11.612;2023-11-19T12:39:07;13.60;99.90
50162;DHT22;36061;48.116;11.612;2023-11-19T12:41:52;13.50;99.90
50162;DHT22;36061;48.116;11.612;2023-11-19T12:44:20;13.50;99.90
50162;DHT22;36061;48.116;11.612;2023-11-19T12:47:02;13.40;99.90
50162;DHT22;36061;48.116;11.612;2023-11-19T12:49:31;13.40;99.90
50162;DHT22;36061;48.116;11.612;2023-11-19T12:51:58;13.40;99.90
50162;DHT22;36061;48.116;11.612;2023-11-19T12:54:34;13.50;99.90
50162;DHT22;36061;48.116;11.612;2023-11-19T12:57:01;13.50;99.90
50162;DHT22;36061;48.116;11.612;2023-11-19T12:59:29;13.60;99.90
50162;DHT22;36061;48.116;11.612;2023-11-19T13:01:56;13.60;99.90
50162;DHT22;36061;48.116;11.612;2023-11-19T13:04:28;13.70;99.90
50162;DHT22;36061;48.116;11.612;2023-11-19T13:06:57;13.70;99.90
50162;DHT22;36061;48.116;11.612;2023-11-19T13:09:26;13.80;99.90
50162;DHT22;36061;48.116;11.612;2023-11-19T13:11:53;13.80;99.90
50162;DHT22;36061;48.116;11.612;2023-11-19T13:14:22;13.80;99.90
50162;DHT22;36061;48.116;11.612;2023-11-19T13:16:50;13.70;99.90
50162;DHT22;36061;48.116;11.612;2023-11-19T13:19:19;13.80;99.90
50162;DHT22;36061;48.116;11.612;2023-11-19T13:21:49;13.70;99.90
50162;DHT22;36061;48.116;11.612;2023-11-19T13:24:18;13.70;99.90
50162;DHT22;36061;48.116;11.612;2023-11-19T13:26:45;13.60;99.90
50162;DHT22;36061;48.116;11.612;2023-11-19T13:29:12;13.60;99.90
50162;DHT22;36061;48.116;11.612;2023-11-19T13:31:40;13.50;99.90
50162;DHT22;36061;48.116;11.612;2023-11-19T13:34:07;13.50;99.90
50162;DHT22;36061;48.116;11.612;2023-11-19T13:36:35;13.50;99.90
50162;DHT22;36061;48.116;11.612;2023-11-19T13:39:02;13.50;99.90
50162;DHT22;36061;48.116;11.612;2023-11-19T13:41:31;13.50;99.90
50162;DHT22;36061;48.116;11.612;2023-11-19T13:43:58;13.40;99.90
50162;DHT22;36061;48.116;11.612;2023-11-19T13:46:25;13.50;99.90
50162;DHT22;36061;48.116;11.612;2023-11-19T13:48:53;13.50;99.90
50162;DHT22;36061;48.116;11.612;2023-11-19T13:51:20;13.40;99.90
50162;DHT22;36061;48.116;11.612;2023-11-19T13:53:47;13.40;99.90
50162;DHT22;36061;48.116;11.612;2023-11-19T13:56:14;13.30;99.90
50162;DHT22;36061;48.116;11.612;2023-11-19T13:58:46;13.30;99.90
50162;DHT22;36061;48.116;11.612;2023-11-19T14:01:13;13.20;99.90
50162;DHT22;36061;48.116;11.612;2023-11-19T14:03:42;13.20;99.90
50162;DHT22;36061;48.116;11.612;2023-11-19T14:06:09;13.20;99.90
50162;DHT22;36061;48.116;11.612;2023-11-19T14:08:36;13.20;99.90
50162;DHT22;36061;48.116;11.612;2023-11-19T14:11:04;13.10;99.90
50162;DHT22;36061;48.116;11.612;2023-11-19T14:13:32;13.10;99.90
50162;DHT22;36061;48.116;11.612;2023-11-19T14:16:01;13.10;99.90
50162;DHT22;36061;48.116;11.612;2023-11-19T14:18:33;13.10;99.90
50162;DHT22;36061;48.116;11.612;2023-11-19T14:21:00;13.10;99.90
50162;DHT22;36061;48.116;11.612;2023-11-19T14:23:29;13.10;99.90
50162;DHT22;36061;48.116;11.612;2023-11-19T14:25:56;13.10;99.90
50162;DHT22;36061;48.116;11.612;2023-11-19T14:28:23;13.10;99.90
50162;DHT22;36061;48.116;11.612;2023-11-19T14:30:52;13.10;99.90
50162;DHT22;36061;48.116;11.612;2023-11-19T14:33:24;13.20;99.90
50162;DHT22;36061;48.116;11.612;2023-11-19T14:35:51;13.20;99.90
50162;DHT22;36061;48.116;11.612;2023-11-19T14:38:19;13.10;99.90
50162;DHT22;36061;48.116;11.612;2023-11-19T14:40:46;13.10;99.90
50162;DHT22;36061;48.116;11.612;2023-11-19T14:43:13;13.20;99.90
50162;DHT22;36061;48.116;11.612;2023-11-19T14:45:41;13.20;99.90
50162;DHT22;36061;48.116;11.612;2023-11-19T14:48:08;13.20;99.90
50162;DHT22;36061;48.116;11.612;2023-11-19T14:50:37;13.20;99.90
50162;DHT22;36061;48.116;11.612;2023-11-19T14:53:04;13.20;99.90
50162;DHT22;36061;48.116;11.612;2023-11-19T14:55:32;13.20;99.90
50162;DHT22;36061;48.116;11.612;2023-11-19T14:57:59;13.10;99.90
50162;DHT22;36061;48.116;11.612;2023-11-19T15:00:26;13.10;99.90
50162;DHT22;36061;48.116;11.612;2023-11-19T15:02:54;13.00;99.90
50162;DHT22;36061;48.116;11.612;2023-11-19T15:05:22;13.00;99.90
50162;DHT22;36061;48.116;11.612;2023-11-19T15:07:51;12.90;99.90
50162;DHT22;36061;48.116;11.612;2023-11-19T15:10:19;12.80;99.90
50162;DHT22;36061;48.116;11.612;2023-11-19T15:12:46;12.80;99.90
50162;DHT22;36061;48.116;11.612;2023-11-19T15:15:13;12.80;99.90
50162;DHT22;36061;48.116;11.612;2023-11-19T15:17:41;12.80;99.90
50162;DHT22;36061;48.116;11.612;2023-11-19T15:20:09;12.80;99.90
50162;DHT22;36061;48.116;11.612;2023-11-19T15:22:39;12.70;99.90
50162;DHT22;36061;48.116;11.612;2023-11-19T15:25:08;12.70;99.90
50162;DHT22;36061;48.116;11.612;2023-11-19T15:27:36;12.60;99.90
50162;DHT22;36061;48.116;11.612;2023-11-19T15:30:04;12.60;99.90
50162;DHT22;36061;48.116;11.612;2023-11-19T15:32:31;12.50;99.90
50162;DHT22;36061;48.116;11.612;2023-11-19T15:34:59;12.40;99.90